Terminal Aerodrome Forecast
Issued by NWS Twin Cities, MN

Home | Current Version | Previous Version | Text Only | Print | Product List | Glossary Off
Versions: 1 2 3 4 5 6 7 8 9 10 11 12 13 14

000
FTUS43 KMPX 262300
TAFEAU
TAF
KEAU 262331Z 2700/2724 24006KT P6SM FEW050 SCT250
     FM270300 23004KT P6SM SCT050 SCT090
     FM271000 27008KT P6SM SCT025 BKN050
     FM271500 31013G20KT P6SM -SHRA SCT025 OVC040
     FM271800 34014G22KT P6SM -SHRA SCT030 OVC045=

USA.gov is the U.S. government's official web portal to all federal, state and local government web resources and services.